Juneau, AK (99801)

4:47 PM AKDT on September 02, 2015 (GMT -0800)
Aurora Harbor | | Change Station
CLOSE
Current Station
Personal Weather Station
Location: Juneau, AK
Elevation: 55 ft
Nearby Weather Stations

Elev 55 ft 58.31 °N, 134.44 °W | Updated 8 minutes ago

Scattered Clouds
Scattered Clouds
65.8 °F
Feels Like 65.8 °F
N
4.2
Wind Variable Wind from SSW

Today
High -- | Low -- °F
--% Chance of Precip.
Yesterday
High -- | Low -- °F
Precip. -- in
5:59 AM 7:54 PM
Waning Gibbous, 75% visible
Pressure 29.94 in
Visibility 10.0 miles
Clouds Few 7000 ft
Few 14000 ft
Scattered Clouds 19000 ft
Dew Point 43 °F
Humidity 44%
Rainfall 0.00 in
Snow Depth Not available.
UV 2 out of 12
Pollen Not available.
Air Quality Not available.
Flu Activity Not available.
METAR PAJN 022353Z 08010G19KT 10SM FEW070 FEW140 SCT190 17/01 A2994 RMK AO2 SLP138 T01720011 10172 20111 51008
Pressure 29.94 in
Visibility 10.0 miles
Clouds Few 7000 ft
Few 14000 ft
Scattered Clouds 19000 ft
Dew Point 43 °F
Humidity 44%
Rainfall 0.00 in
Snow Depth Not available.
UV 2 out of 12
Pollen Not available.
Air Quality Not available.
Flu Activity Not available.
METAR PAJN 022353Z 08010G19KT 10SM FEW070 FEW140 SCT190 17/01 A2994 RMK AO2 SLP138 T01720011 10172 20111 51008

10-Day Weather Forecast

×

Almanac

Astronomy

Sep. 02, 2015 Rise Set
Actual Time
Civil Twilight
Nautical Twilight
Astronomical Twilight
Moon
Length of Visible Light
Length of Day
Tomorrow will be .
, % of the Moon is Illuminated

Today's Extremes

State Highs State Lows

Community

WunderPhotos

Upload Photos

1,851,855 photos uploaded!

WunderBlogs® & News

Nearby

Air Quality

  Air Quality AQ Index Pollutant
Not available.

Snow Depth

Station Depth Elevation

Earthquake Activity

City Distance Mag. Time & Date
Minimum magnitude displayed is 2.5.

Coastal Water Temperatures

Place Temperature

Stations

Nearby Weather Stations

Station Location Temp. Windchill Dew Point Humidity Wind Precip. Elev Updated Type